createdAt,value
2018-03-14T00:00:43.691Z,6.80
2018-03-14T00:03:09.907Z,6.80
2018-03-14T00:05:36.845Z,6.80
2018-03-14T00:08:03.122Z,6.80
2018-03-14T00:10:30.035Z,6.80
2018-03-14T00:12:56.258Z,6.70
2018-03-14T00:15:22.442Z,6.70
2018-03-14T00:17:48.662Z,6.70
2018-03-14T00:20:16.537Z,6.70
2018-03-14T00:22:42.741Z,6.70
2018-03-14T00:25:09.690Z,6.80
2018-03-14T00:27:36.664Z,6.80
2018-03-14T00:30:03.676Z,6.90
2018-03-14T00:32:30.620Z,6.80
2018-03-14T00:34:56.808Z,6.80
2018-03-14T00:37:23.132Z,6.80
2018-03-14T00:39:49.323Z,6.70
2018-03-14T00:42:16.255Z,6.70
2018-03-14T00:44:42.495Z,6.90
2018-03-14T00:47:09.414Z,7.00
2018-03-14T00:49:35.623Z,7.00
2018-03-14T00:52:01.837Z,8.10
2018-03-14T00:54:28.065Z,7.00
2018-03-14T00:56:54.230Z,6.90
2018-03-14T00:59:20.445Z,6.90
2018-03-14T01:01:46.672Z,6.80
2018-03-14T01:04:12.891Z,6.80
2018-03-14T01:06:39.083Z,6.70
2018-03-14T01:09:05.297Z,6.70
2018-03-14T01:11:32.272Z,6.60
2018-03-14T01:13:58.489Z,6.60
2018-03-14T01:16:24.697Z,6.60
2018-03-14T01:18:51.652Z,6.60
2018-03-14T01:21:18.619Z,6.60
2018-03-14T01:23:44.776Z,6.60
2018-03-14T01:26:11.100Z,6.60
2018-03-14T01:28:37.297Z,6.60
2018-03-14T01:31:03.493Z,6.60
2018-03-14T01:33:29.681Z,6.70
2018-03-14T01:35:55.859Z,6.70
2018-03-14T01:38:22.068Z,6.70
2018-03-14T01:40:48.255Z,6.70
2018-03-14T01:43:15.983Z,6.70
2018-03-14T01:45:42.969Z,6.70
2018-03-14T01:48:09.191Z,6.70
2018-03-14T01:50:35.378Z,6.60
2018-03-14T01:53:14.728Z,6.70
2018-03-14T01:55:42.422Z,6.60
2018-03-14T01:58:08.640Z,6.60
2018-03-14T02:00:34.877Z,6.60
2018-03-14T02:03:01.098Z,6.60
2018-03-14T02:05:27.292Z,6.60
2018-03-14T02:07:54.288Z,6.60
2018-03-14T02:10:20.463Z,6.50
2018-03-14T02:12:46.684Z,6.60
2018-03-14T02:15:12.868Z,6.50
2018-03-14T02:17:39.050Z,6.60
2018-03-14T02:20:05.262Z,6.40
2018-03-14T02:22:31.420Z,6.50
2018-03-14T02:24:58.368Z,6.50
2018-03-14T02:27:25.297Z,6.50
2018-03-14T02:29:51.512Z,6.50
2018-03-14T02:32:17.683Z,6.40
2018-03-14T02:34:43.885Z,6.40
2018-03-14T02:37:10.922Z,6.40
2018-03-14T02:39:37.104Z,6.40
2018-03-14T02:42:03.275Z,6.40
2018-03-14T02:44:29.462Z,6.40
2018-03-14T02:46:55.662Z,6.30
2018-03-14T02:49:22.550Z,6.30
2018-03-14T02:51:48.779Z,6.30
2018-03-14T02:54:14.971Z,6.20
2018-03-14T02:56:41.914Z,6.20
2018-03-14T02:59:08.845Z,6.20
2018-03-14T03:01:35.402Z,6.20
2018-03-14T03:04:02.320Z,6.30
2018-03-14T03:06:29.477Z,6.30
2018-03-14T03:08:56.429Z,6.30
2018-03-14T03:11:23.376Z,6.30
2018-03-14T03:13:50.284Z,6.40
2018-03-14T03:16:16.484Z,6.30
2018-03-14T03:18:42.710Z,6.40
2018-03-14T03:21:08.878Z,6.40
2018-03-14T03:23:35.064Z,6.40
2018-03-14T03:26:01.282Z,6.30
2018-03-14T03:28:27.462Z,6.30
2018-03-14T03:30:53.649Z,6.30
2018-03-14T03:33:34.763Z,6.30
2018-03-14T03:36:00.919Z,6.30
2018-03-14T03:38:27.064Z,6.30
2018-03-14T03:40:55.032Z,6.30
2018-03-14T03:43:21.184Z,6.40
2018-03-14T03:45:47.456Z,6.40
2018-03-14T03:48:13.665Z,6.50
2018-03-14T03:50:39.863Z,6.50
2018-03-14T03:53:06.035Z,6.50
2018-03-14T03:55:32.241Z,6.50
2018-03-14T03:57:58.452Z,6.50
2018-03-14T04:00:24.672Z,6.40
2018-03-14T04:02:50.915Z,6.30
2018-03-14T04:05:17.106Z,6.30
2018-03-14T04:07:44.100Z,6.30
2018-03-14T04:10:10.348Z,6.40
2018-03-14T04:12:36.601Z,6.40
2018-03-14T04:15:02.807Z,6.40
2018-03-14T04:17:28.998Z,9.50
2018-03-14T04:19:55.201Z,6.40
2018-03-14T04:22:22.142Z,6.40
2018-03-14T04:24:49.106Z,6.30
2018-03-14T04:27:16.059Z,6.30
2018-03-14T04:29:43.041Z,6.40
2018-03-14T04:32:09.241Z,6.40
2018-03-14T04:34:35.458Z,6.50
2018-03-14T04:37:02.398Z,6.40
2018-03-14T04:39:29.332Z,6.30
2018-03-14T04:41:56.263Z,6.40
2018-03-14T04:44:22.482Z,6.40
2018-03-14T04:46:48.649Z,6.40
2018-03-14T04:49:15.618Z,6.40
2018-03-14T04:51:41.867Z,6.40
2018-03-14T04:54:08.106Z,6.30
2018-03-14T04:56:34.291Z,6.20
2018-03-14T04:59:00.482Z,6.20
2018-03-14T05:01:41.590Z,6.20
2018-03-14T05:04:07.803Z,6.20
2018-03-14T05:06:34.756Z,6.20
2018-03-14T05:09:01.712Z,6.30
2018-03-14T05:11:27.919Z,6.30
2018-03-14T05:13:54.500Z,6.30
2018-03-14T05:16:20.721Z,6.20
2018-03-14T05:18:46.917Z,6.30
2018-03-14T05:21:13.503Z,6.20
2018-03-14T05:23:39.737Z,6.30
2018-03-14T05:26:05.948Z,6.20
2018-03-14T05:28:32.097Z,6.20
2018-03-14T05:30:58.364Z,6.20
2018-03-14T05:33:24.535Z,6.20
2018-03-14T05:45:35.760Z,6.20
2018-03-14T05:48:02.763Z,6.10
2018-03-14T05:50:28.943Z,6.20
2018-03-14T05:52:55.148Z,6.20
2018-03-14T05:55:22.173Z,6.20
2018-03-14T05:57:48.953Z,6.20
2018-03-14T07:22:12.962Z,7.70
2018-03-14T07:24:39.156Z,7.40
2018-03-14T07:27:06.462Z,7.90
2018-03-14T07:29:33.440Z,8.10
2018-03-14T07:32:00.442Z,8.30
2018-03-14T07:34:27.010Z,8.40
2018-03-14T07:36:53.954Z,8.50
2018-03-14T07:39:20.881Z,8.60
2018-03-14T07:41:47.453Z,8.70
2018-03-14T07:44:13.704Z,8.20
2018-03-14T07:46:39.920Z,8.70
2018-03-14T07:58:51.152Z,8.40
2018-03-14T08:01:18.102Z,8.60
2018-03-14T08:03:44.396Z,8.70
2018-03-14T08:06:10.692Z,8.60
2018-03-14T08:08:37.165Z,8.40
2018-03-14T08:11:03.652Z,8.60
2018-03-14T08:13:29.946Z,8.70
2018-03-14T08:15:56.190Z,9.00
2018-03-14T08:18:23.097Z,9.00
2018-03-14T08:20:49.310Z,9.20
2018-03-14T08:23:15.896Z,9.30
2018-03-14T08:25:42.835Z,9.50
2018-03-14T08:28:10.535Z,9.90
2018-03-14T08:30:36.725Z,9.90
2018-03-14T08:33:03.657Z,10.40
2018-03-14T08:35:29.842Z,10.50
2018-03-14T08:37:56.088Z,10.20
2018-03-14T08:40:22.304Z,10.10
2018-03-14T08:42:49.273Z,9.90
2018-03-14T08:45:17.015Z,9.70
2018-03-14T08:47:43.231Z,9.80
2018-03-14T08:50:10.554Z,9.60
2018-03-14T08:52:37.471Z,9.70
2018-03-14T08:55:03.864Z,9.70
2018-03-14T08:57:30.083Z,9.60
2018-03-14T08:59:56.312Z,9.70
2018-03-14T09:02:22.570Z,9.60
2018-03-14T09:04:48.822Z,9.60
2018-03-14T09:07:15.832Z,9.60
2018-03-14T09:09:42.234Z,9.90
2018-03-14T09:12:09.489Z,10.00
2018-03-14T09:14:36.574Z,10.10
2018-03-14T09:17:02.748Z,10.10
2018-03-14T09:19:28.953Z,10.30
2018-03-14T09:21:56.152Z,10.10
2018-03-14T09:24:23.227Z,10.20
2018-03-14T09:26:49.845Z,10.50
2018-03-14T09:29:16.065Z,10.50
2018-03-14T09:31:43.048Z,10.60
2018-03-14T09:34:09.292Z,10.60
2018-03-14T09:36:35.476Z,10.50
2018-03-14T09:39:01.678Z,10.70
2018-03-14T09:41:27.868Z,10.90
2018-03-14T09:43:54.105Z,12.40
2018-03-14T09:46:20.251Z,14.40
2018-03-14T09:48:46.444Z,15.50
2018-03-14T09:51:12.632Z,15.80
2018-03-14T09:53:39.588Z,15.30
2018-03-14T09:56:06.523Z,14.60
2018-03-14T09:58:33.580Z,13.60
2018-03-14T10:01:00.520Z,13.00
2018-03-14T10:03:27.203Z,12.80
2018-03-14T10:05:53.446Z,12.60
2018-03-14T10:08:19.671Z,13.70
2018-03-14T10:10:45.840Z,15.20
2018-03-14T10:13:12.395Z,17.50
2018-03-14T10:15:38.585Z,17.50
2018-03-14T10:18:05.127Z,17.90
2018-03-14T10:20:32.334Z,18.10
2018-03-14T10:22:58.513Z,18.50
2018-03-14T10:25:24.753Z,18.90
2018-03-14T10:27:51.760Z,18.90
2018-03-14T10:30:17.967Z,17.10
2018-03-14T10:32:44.156Z,17.00
2018-03-14T10:35:11.134Z,17.00
2018-03-14T10:37:37.304Z,16.40
2018-03-14T10:40:05.055Z,16.20
2018-03-14T10:42:32.024Z,17.70
2018-03-14T10:44:58.223Z,18.10
2018-03-14T10:47:24.416Z,17.70
2018-03-14T10:49:50.634Z,17.60
2018-03-14T10:52:16.847Z,18.90
2018-03-14T10:54:43.423Z,18.60
2018-03-14T10:57:09.650Z,18.60
2018-03-14T10:59:35.819Z,18.30
2018-03-14T11:02:08.215Z,17.90
2018-03-14T11:04:35.218Z,15.80
2018-03-14T11:07:01.486Z,15.80
2018-03-14T11:19:12.820Z,15.10
2018-03-14T11:21:39.044Z,14.90
2018-03-14T11:24:05.216Z,14.50
2018-03-14T11:26:32.233Z,14.60
2018-03-14T11:28:58.416Z,14.40
2018-03-14T11:31:24.683Z,14.30
2018-03-14T11:33:50.884Z,19.60
2018-03-14T11:36:17.061Z,15.90
2018-03-14T11:38:43.346Z,15.70
2018-03-14T11:41:09.533Z,15.60
2018-03-14T11:43:36.478Z,16.40
2018-03-14T11:46:03.543Z,16.00
2018-03-14T11:48:29.728Z,17.40
2018-03-14T11:50:55.920Z,19.30
2018-03-14T11:53:22.982Z,21.40
2018-03-14T11:55:49.172Z,22.50
2018-03-14T11:58:15.380Z,22.70
2018-03-14T12:00:42.343Z,24.40
2018-03-14T12:03:10.057Z,24.30
2018-03-14T12:05:36.273Z,24.60
2018-03-14T12:08:02.495Z,25.20
2018-03-14T12:10:28.691Z,25.80
2018-03-14T12:12:56.668Z,26.30
2018-03-14T12:15:22.842Z,25.60
2018-03-14T12:17:49.021Z,22.00
2018-03-14T12:20:16.221Z,20.30
2018-03-14T12:22:43.351Z,20.20
2018-03-14T12:25:09.913Z,19.50
2018-03-14T12:27:36.064Z,19.10
2018-03-14T12:30:03.041Z,18.80
2018-03-14T12:32:29.306Z,19.10
2018-03-14T12:34:55.496Z,21.50
2018-03-14T12:37:21.709Z,21.80
2018-03-14T12:39:48.639Z,25.80
2018-03-14T12:42:15.573Z,26.90
2018-03-14T12:44:41.764Z,26.80
2018-03-14T12:47:08.370Z,26.70
2018-03-14T12:49:35.286Z,25.60
2018-03-14T12:52:02.007Z,25.50
2018-03-14T12:54:28.340Z,24.50
2018-03-14T12:56:54.597Z,21.90
2018-03-14T12:59:20.866Z,19.70
2018-03-14T13:01:47.096Z,18.90
2018-03-14T13:04:13.272Z,18.30
2018-03-14T13:06:39.566Z,17.40
2018-03-14T13:09:05.852Z,17.30
2018-03-14T13:11:33.203Z,16.50
2018-03-14T13:13:59.362Z,16.50
2018-03-14T13:16:25.566Z,16.10
2018-03-14T13:18:52.631Z,15.80
2018-03-14T13:21:19.611Z,16.00
2018-03-14T13:23:45.878Z,17.70
2018-03-14T13:26:12.098Z,17.80
2018-03-14T13:28:38.304Z,19.50
2018-03-14T13:31:04.514Z,18.60
2018-03-14T13:33:30.692Z,17.50
2018-03-14T13:35:56.892Z,16.70
2018-03-14T13:38:23.800Z,15.60
2018-03-14T13:40:49.995Z,15.50
2018-03-14T13:43:16.200Z,15.20
2018-03-14T13:45:42.395Z,15.00
2018-03-14T13:48:08.606Z,15.00
2018-03-14T13:50:35.563Z,14.70
2018-03-14T14:02:46.822Z,14.70
2018-03-14T14:05:12.998Z,15.80
2018-03-14T14:07:39.217Z,16.00
2018-03-14T14:10:05.428Z,15.90
2018-03-14T14:12:31.630Z,16.40
2018-03-14T14:14:57.869Z,17.00
2018-03-14T14:17:24.033Z,17.30
2018-03-14T14:19:50.993Z,17.80
2018-03-14T14:22:18.472Z,17.80
2018-03-14T14:24:44.858Z,18.10
2018-03-14T14:27:11.064Z,18.30
2018-03-14T14:29:37.292Z,18.40
2018-03-14T14:32:03.513Z,18.30
2018-03-14T14:34:29.748Z,18.10
2018-03-14T14:36:55.923Z,17.70
2018-03-14T14:39:22.107Z,17.50
2018-03-14T14:41:48.791Z,17.60
2018-03-14T14:44:15.010Z,17.60
2018-03-14T14:46:41.928Z,17.20
2018-03-14T14:49:08.112Z,16.60
2018-03-14T14:51:35.083Z,16.50
2018-03-14T14:54:01.299Z,16.50
2018-03-14T14:56:28.296Z,15.70
2018-03-14T14:58:54.485Z,15.70
2018-03-14T15:01:20.697Z,15.60
2018-03-14T15:03:47.708Z,16.00
2018-03-14T15:06:13.943Z,16.00
2018-03-14T15:08:40.102Z,16.00
2018-03-14T15:11:07.147Z,15.50
2018-03-14T15:13:34.133Z,15.30
2018-03-14T15:16:00.335Z,15.30
2018-03-14T15:18:26.525Z,15.00
2018-03-14T15:20:52.744Z,14.90
2018-03-14T15:23:18.943Z,14.70
2018-03-14T15:25:45.151Z,14.60
2018-03-14T15:28:11.487Z,14.60
2018-03-14T15:30:37.676Z,14.50
2018-03-14T15:33:03.942Z,14.40
2018-03-14T15:35:30.100Z,14.20
2018-03-14T15:37:56.293Z,14.20
2018-03-14T15:40:22.488Z,14.00
2018-03-14T15:42:48.712Z,13.80
2018-03-14T15:45:14.925Z,13.70
2018-03-14T15:47:41.092Z,13.50
2018-03-14T15:59:53.363Z,13.10
2018-03-14T16:02:20.277Z,13.00
2018-03-14T16:04:46.473Z,12.90
2018-03-14T16:07:12.687Z,12.70
2018-03-14T16:09:38.897Z,12.70
2018-03-14T16:12:05.834Z,12.50
2018-03-14T16:14:32.769Z,12.50
2018-03-14T16:16:59.016Z,12.50
2018-03-14T16:19:25.205Z,12.40
2018-03-14T16:21:51.446Z,12.40
2018-03-14T16:24:17.696Z,12.20
2018-03-14T16:26:44.689Z,12.00
2018-03-14T16:29:10.874Z,12.00
2018-03-14T16:31:37.841Z,11.90
2018-03-14T16:34:04.094Z,11.80
2018-03-14T16:36:30.314Z,11.80
2018-03-14T16:38:57.527Z,11.70
2018-03-14T16:41:24.570Z,11.70
2018-03-14T16:43:51.579Z,11.60
2018-03-14T16:46:17.777Z,11.70
2018-03-14T16:48:44.027Z,11.60
2018-03-14T16:51:10.238Z,11.60
2018-03-14T16:53:36.447Z,11.60
2018-03-14T16:56:03.374Z,11.40
2018-03-14T16:58:29.600Z,11.40
2018-03-14T17:00:55.816Z,11.40
2018-03-14T17:03:22.614Z,11.40
2018-03-14T17:05:48.934Z,11.30
2018-03-14T17:08:15.226Z,11.30
2018-03-14T17:10:41.430Z,11.20
2018-03-14T17:26:07.701Z,11.20
2018-03-14T17:28:35.058Z,10.90
2018-03-14T17:31:02.043Z,10.80
2018-03-14T17:33:28.275Z,10.80
2018-03-14T17:35:54.489Z,10.80
2018-03-14T17:38:20.672Z,10.80
2018-03-14T17:40:46.936Z,10.80
2018-03-14T17:43:13.226Z,10.80
2018-03-14T17:45:40.363Z,10.80
2018-03-14T17:48:06.657Z,10.70
2018-03-14T17:50:32.891Z,10.70
2018-03-14T17:52:59.134Z,10.70
2018-03-14T17:55:25.427Z,10.60
2018-03-14T17:57:51.635Z,10.60
2018-03-14T18:00:17.849Z,10.60
2018-03-14T18:02:44.037Z,10.50
2018-03-14T18:05:10.238Z,10.50
2018-03-14T18:07:37.249Z,10.40
2018-03-14T18:10:04.285Z,10.40
2018-03-14T18:12:30.505Z,10.40
2018-03-14T18:14:56.707Z,10.40
2018-03-14T18:17:22.962Z,10.30
2018-03-14T18:19:49.214Z,10.20
2018-03-14T18:22:15.378Z,10.20
2018-03-14T18:24:42.316Z,10.10
2018-03-14T18:27:09.232Z,10.00
2018-03-14T18:29:35.461Z,10.00
2018-03-14T18:32:01.684Z,10.00
2018-03-14T18:34:27.833Z,10.00
2018-03-14T18:36:54.037Z,9.90
2018-03-14T18:39:20.284Z,9.90
2018-03-14T18:41:47.703Z,9.80
2018-03-14T18:44:13.924Z,9.70
2018-03-14T18:46:40.146Z,9.70
2018-03-14T18:49:06.425Z,9.60
2018-03-14T18:51:32.649Z,9.60
2018-03-14T18:53:58.867Z,9.60
2018-03-14T18:56:25.043Z,9.60
2018-03-14T18:58:52.123Z,9.40
2018-03-14T19:01:18.409Z,9.40
2018-03-14T19:03:45.401Z,9.40
2018-03-14T19:06:11.659Z,9.40
2018-03-14T19:08:37.986Z,9.30
2018-03-14T19:11:05.478Z,9.30
2018-03-14T19:23:21.715Z,9.20
2018-03-14T19:25:48.007Z,9.10
2018-03-14T19:28:14.462Z,9.10
2018-03-14T19:30:40.682Z,9.00
2018-03-14T19:33:06.917Z,9.00
2018-03-14T19:35:33.190Z,8.90
2018-03-14T19:38:00.238Z,8.90
2018-03-14T19:40:26.414Z,8.90
2018-03-14T19:42:52.677Z,8.80
2018-03-14T19:45:18.991Z,8.80
2018-03-14T19:47:45.328Z,8.70
2018-03-14T19:50:11.522Z,8.70
2018-03-14T19:52:37.712Z,8.70
2018-03-14T19:55:03.949Z,8.70
2018-03-14T19:57:30.915Z,8.60
2018-03-14T19:59:57.111Z,8.60
2018-03-14T20:02:23.329Z,8.60
2018-03-14T20:04:49.534Z,8.60
2018-03-14T20:07:15.799Z,8.50
2018-03-14T20:09:42.050Z,8.50
2018-03-14T20:12:09.003Z,8.50
2018-03-14T20:14:35.207Z,8.50
2018-03-14T20:17:01.464Z,8.40
2018-03-14T20:19:27.700Z,8.40
2018-03-14T20:21:53.902Z,8.30
2018-03-14T20:24:20.898Z,8.30
2018-03-14T20:26:47.132Z,8.30
2018-03-14T20:29:13.380Z,8.30
2018-03-14T20:31:39.629Z,8.30
2018-03-14T20:34:06.732Z,8.20
2018-03-14T20:36:32.934Z,8.20
2018-03-14T20:38:59.164Z,8.10
2018-03-14T20:41:25.417Z,8.00
2018-03-14T20:43:51.637Z,8.10
2018-03-14T20:46:17.854Z,8.00
2018-03-14T20:48:44.103Z,8.00
2018-03-14T20:51:10.347Z,8.00
2018-03-14T20:53:36.592Z,7.90
2018-03-14T20:56:02.887Z,7.90
2018-03-14T20:58:29.116Z,7.90
2018-03-14T21:00:55.346Z,7.90
2018-03-14T21:03:21.554Z,7.80
2018-03-14T21:05:47.897Z,7.80
2018-03-14T21:08:14.110Z,7.80
2018-03-14T21:10:41.037Z,7.70
2018-03-14T21:13:07.254Z,7.70
2018-03-14T21:15:33.459Z,7.70
2018-03-14T21:17:59.674Z,7.60
2018-03-14T21:20:25.940Z,7.60
2018-03-14T21:22:52.192Z,7.60
2018-03-14T21:25:19.121Z,7.60
2018-03-14T21:27:45.318Z,7.60
2018-03-14T21:30:11.569Z,7.60
2018-03-14T21:32:37.754Z,7.60
2018-03-14T21:35:04.017Z,7.60
2018-03-14T21:37:30.246Z,7.60
2018-03-14T21:39:56.750Z,7.60
2018-03-14T21:42:22.989Z,7.50
2018-03-14T21:44:49.272Z,7.40
2018-03-14T21:47:16.234Z,7.40
2018-03-14T21:49:43.217Z,7.40
2018-03-14T21:52:09.402Z,7.40
2018-03-14T21:54:36.366Z,7.40
2018-03-14T21:57:14.958Z,7.40
2018-03-14T21:59:41.955Z,7.30
2018-03-14T22:02:08.228Z,7.30
2018-03-14T22:04:34.456Z,7.30
2018-03-14T22:07:00.716Z,7.20
2018-03-14T22:09:26.974Z,7.20
2018-03-14T22:11:53.176Z,7.20
2018-03-14T22:14:19.380Z,7.20
2018-03-14T22:16:46.337Z,7.10
2018-03-14T22:19:13.332Z,7.10
2018-03-14T22:21:39.621Z,7.10
2018-03-14T22:24:06.619Z,7.10
2018-03-14T22:26:32.803Z,7.10
2018-03-14T22:28:59.192Z,7.20
2018-03-14T22:31:26.193Z,7.10
2018-03-14T22:33:52.432Z,7.10
2018-03-14T22:36:18.734Z,7.10
2018-03-14T22:38:45.820Z,7.00
2018-03-14T22:41:12.092Z,7.00
2018-03-14T22:43:38.274Z,7.00
2018-03-14T22:46:05.436Z,7.00
2018-03-14T22:48:31.648Z,6.90
2018-03-14T22:50:57.865Z,6.90
2018-03-14T22:53:24.130Z,6.90
2018-03-14T22:55:50.373Z,6.80
2018-03-14T22:58:16.540Z,6.80
2018-03-14T23:00:42.806Z,6.80
2018-03-14T23:03:09.053Z,6.80
2018-03-14T23:05:35.284Z,6.50
2018-03-14T23:08:01.509Z,6.70
2018-03-14T23:10:27.793Z,6.80
2018-03-14T23:12:53.998Z,6.70
2018-03-14T23:15:20.948Z,6.60
2018-03-14T23:17:47.956Z,6.50
2018-03-14T23:20:15.913Z,6.50
2018-03-14T23:22:42.166Z,6.60
2018-03-14T23:25:08.626Z,6.60
2018-03-14T23:27:34.822Z,6.60
2018-03-14T23:30:01.015Z,6.60
2018-03-14T23:32:27.249Z,6.50
2018-03-14T23:34:53.415Z,6.50
2018-03-14T23:37:19.634Z,6.50
2018-03-14T23:39:45.898Z,6.50
2018-03-14T23:42:12.089Z,6.40
2018-03-14T23:44:38.310Z,6.40
2018-03-14T23:47:04.536Z,6.40
2018-03-14T23:49:30.764Z,6.40
2018-03-14T23:51:56.947Z,6.40
2018-03-14T23:54:23.872Z,6.30
2018-03-14T23:56:50.079Z,6.30
2018-03-14T23:59:16.286Z,6.40
